ADDS TAF Data INFO
IDs: Format: Raw Decoded Include METARs

Data at: 1703 UTC 26 Apr 2018

KCVS 261639Z AUTO 29012G17KT 10SM FEW200 20/02 A3005 RMK AO2 WSHFT 35 SLP146 $

TAF KCVS 261003Z 2610/2716 24009KT 9999 FEW200 WS020/23035KT QNH3005INS
  BECMG 2616/2617 35015G25KT 9999 FEW200 QNH3003INS
  BECMG 2620/2621 02025G35KT 9999 FEW200 510009 QNH3005INS
  BECMG 2700/2701 02015G25KT 9999 SKC QNH3010INS
  BECMG 2705/2706 02009KT 9999 SKC QNH3026INS
  BECMG 2715/2716 24012G18KT 9999 SKC QNH3025INS TX23/2621Z TN03/2612Z